Latest Weather Observations for Kingaroy

IDQ60901

Issued at 9:21 pm EST Friday 9 December 2016 (issued every 10 minutes, with the page automatically refreshed every 10 minutes)

About weather observations | Map of Brisbane area stations | Latest observations for Brisbane area | Other Formats
Station Details ID: 040922 Name: KINGAROY AIRPORT Lat: -26.57 Lon: 151.84 Height: 433.67 m
Data from the previous 72 hours. | See also: Recent months at Kingaroy
Date/Time
EST
Temp
°C
App
Temp
°C
Dew
Point
°C
Rel
Hum
%
Delta-T
°C
Wind Press
QNH
hPa
Press
MSL
hPa
Rain since
9am
mm
Dir  Spd
km/h
Gust
km/h
Spd
kts
Gust
kts
09/09:00pm 18.8 18.0 11.1 61 4.3 SSE 6 9 3 5 1015.8 1013.5 0.2
09/08:30pm 20.6 18.1 8.3 45 6.6 SSE 11 13 6 7 1015.4 1013.1 0.2
09/08:00pm 21.0 18.9 11.3 54 5.5 S 13 15 7 8 1015.3 1013.0 0.2
09/07:30pm 20.9 21.5 15.9 73 3.1 ESE 7 9 4 5 1015.0 1012.7 0.2
09/07:06pm 22.9 24.1 13.9 57 5.4 CALM 0 0 0 0 1014.5 1012.1 0.2
09/07:00pm 23.2 24.2 14.2 57 5.4 WSW 2 6 1 3 1014.4 1012.0 0.2
09/06:43pm 24.0 23.9 13.8 53 6.1 SW 7 11 4 6 1014.3 1011.9 0.2
09/06:30pm 24.3 24.2 13.8 52 6.3 SSW 7 9 4 5 1014.2 1011.8 0.2
09/06:00pm 25.6 23.6 13.8 48 7.1 SSW 17 20 9 11 1013.6 1011.3 0.2
09/05:30pm 26.1 24.6 15.2 51 6.7 SW 17 24 9 13 1013.5 1011.2 0.2
09/05:00pm 25.4 25.1 16.5 58 5.6 SW 13 19 7 10 1013.2 1010.9 0.2
09/04:30pm 25.3 23.9 17.0 60 5.2 SW 20 30 11 16 1012.7 1010.4 0.2
09/04:00pm 24.3 24.6 18.0 68 4.0 WSW 13 20 7 11 1012.6 1010.3 0.2
09/03:30pm 24.4 23.5 18.3 69 3.9 SW 20 28 11 15 1012.6 1010.3 0.2
09/03:00pm 24.6 24.6 19.0 71 3.6 WSW 17 26 9 14 1012.6 1010.3 0.2
09/02:30pm 24.1 23.9 18.5 71 3.6 WSW 17 24 9 13 1012.6 1010.3 0.2
09/02:00pm 24.3 23.2 18.7 71 3.6 WSW 22 32 12 17 1012.8 1010.5 0.2
09/01:30pm 23.8 23.7 18.7 73 3.3 WSW 17 24 9 13 1013.0 1010.7 0.2
09/01:00pm 23.7 22.5 18.4 72 3.4 WSW 22 32 12 17 1012.8 1010.5 0.2
09/12:30pm 24.0 23.3 18.6 72 3.5 WSW 20 28 11 15 1012.9 1010.6 0.2
09/12:00pm 23.2 22.6 18.5 75 3.0 WSW 19 32 10 17 1013.0 1010.7 0.2
09/11:30am 22.8 22.8 19.0 79 2.5 W 17 24 9 13 1013.5 1011.2 0.0
09/11:00am 23.3 22.7 18.8 76 2.9 WSW 20 30 11 16 1013.5 1011.2 0.0
09/10:30am 22.7 22.3 18.9 79 2.4 WSW 19 26 10 14 1013.2 1010.9 0.0
09/10:00am 22.6 22.1 18.6 78 2.6 WSW 19 30 10 16 1013.2 1010.9 0.0
09/09:30am 22.6 22.8 19.4 82 2.1 WNW 17 24 9 13 1013.3 1011.0 0.0
09/09:00am 22.0 22.3 19.5 86 1.6 WNW 17 24 9 13 1013.8 1011.5 16.4
09/08:30am 21.5 21.0 19.2 87 1.5 WNW 20 26 11 14 1013.7 1011.4 16.4
09/08:00am 21.6 21.9 19.7 89 1.2 NW 17 22 9 12 1013.6 1011.3 16.4
09/07:30am 21.3 21.6 19.6 90 1.1 NW 17 24 9 13 1013.8 1011.5 16.4
09/07:00am 20.9 20.9 19.0 89 1.2 NW 17 20 9 11 1014.1 1011.7 16.4
09/06:30am 21.0 22.2 19.8 93 0.8 NW 13 17 7 9 1014.0 1011.6 16.4
09/06:00am 19.5 22.2 18.7 95 0.5 WNW 2 7 1 4 1013.6 1011.3 16.4
09/05:31am 19.4 20.7 18.4 94 0.6 WNW 9 13 5 7 1014.0 1011.6 16.2
09/05:30am 19.4 20.7 18.4 94 0.6 WNW 9 13 5 7 1013.8 1011.5 16.2
09/05:00am 20.2 19.7 19.2 94 0.6 WSW 20 28 11 15 1013.8 1011.5 10.8
09/04:44am 21.1 21.8 20.4 96 0.5 NW 17 22 9 12 1013.2 1010.9 5.2
09/04:30am 21.1 21.8 20.4 96 0.5 NNW 17 20 9 11 1012.8 1010.5 4.4
09/04:00am 21.0 23.2 20.3 96 0.5 NW 9 11 5 6 1012.2 1009.8 4.0
09/03:30am 20.9 23.3 20.1 95 0.5 NNW 7 11 4 6 1011.8 1009.4 4.0
09/03:00am 21.2 24.9 20.0 93 0.8 CALM 0 0 0 0 1011.9 1009.5 4.0
09/02:30am 21.1 24.0 19.9 93 0.8 N 4 7 2 4 1011.9 1009.5 4.0
09/02:00am 21.1 24.8 19.9 93 0.8 CALM 0 6 0 3 1012.0 1009.6 4.0
09/01:30am 21.0 23.0 20.0 94 0.7 NNW 9 11 5 6 1012.2 1009.8 4.0
09/01:00am 21.1 23.1 19.9 93 0.8 NW 9 13 5 7 1012.5 1010.1 4.0
09/12:30am 21.1 22.5 19.6 91 1.0 NNW 11 15 6 8 1012.8 1010.5 4.0
09/12:00am 21.1 22.6 19.7 92 0.9 NNW 11 15 6 8 1013.2 1010.9 4.0
 
Date/Time
EST
Temp
°C
App
Temp
°C
Dew
Point
°C
Rel
Hum
%
Delta-T
°C
Wind Press
QNH
hPa
Press
MSL
hPa
Rain since
9am
mm
Dir  Spd
km/h
Gust
km/h
Spd
kts
Gust
kts
08/11:30pm 21.3 22.4 19.6 90 1.1 N 13 17 7 9 1013.5 1011.2 4.0
08/11:00pm 21.6 23.8 19.7 89 1.2 N 7 9 4 5 1013.2 1010.9 4.0
08/10:30pm 21.8 23.0 19.9 89 1.2 N 13 17 7 9 1013.3 1011.0 4.0
08/10:00pm 21.9 24.1 20.4 91 1.0 NE 9 13 5 7 1012.8 1010.5 4.0
08/09:30pm 22.2 24.0 20.3 89 1.2 NE 11 17 6 9 1013.1 1010.8 4.0
08/09:00pm 22.5 24.8 19.9 85 1.7 ENE 7 20 4 11 1013.0 1010.7 3.8
08/08:30pm 23.5 25.5 20.8 85 1.8 E 11 13 6 7 1011.3 1009.0 2.8
08/08:05pm 23.5 25.4 20.6 84 1.9 SE 11 17 6 9 1011.2 1008.9 2.8
08/08:00pm 23.5 24.9 20.4 83 2.0 SE 13 20 7 11 1011.2 1008.9 2.8
08/07:47pm 23.8 22.2 18.4 72 3.5 SW 24 37 13 20 1011.0 1008.7 2.6
08/07:30pm 28.3 29.7 17.8 53 6.8 WNW 7 9 4 5 1010.6 1008.3 0.0
08/07:00pm 28.9 29.7 17.4 49 7.4 N 9 15 5 8 1010.4 1008.0 0.0
08/06:30pm 29.6 29.2 17.1 47 8.0 N 15 26 8 14 1009.9 1007.5 0.0
08/06:00pm 30.1 28.8 17.2 46 8.3 N 20 32 11 17 1008.9 1006.6 0.0
08/05:30pm 30.4 29.8 17.5 46 8.3 N 17 24 9 13 1008.5 1006.2 0.0
08/05:00pm 30.3 29.4 18.1 48 8.0 N 20 28 11 15 1008.7 1006.4 0.0
08/04:30pm 30.7 29.9 18.1 47 8.2 N 19 30 10 16 1008.6 1006.3 0.0
08/04:00pm 30.7 29.9 18.4 47 8.1 N 20 32 11 17 1008.9 1006.6 0.0
08/03:30pm 31.8 31.5 19.1 47 8.4 N 19 28 10 15 1009.4 1007.0 0.0
08/03:00pm 31.0 30.9 18.7 48 8.1 N 17 26 9 14 1009.7 1007.3 0.0
08/02:30pm 30.2 30.7 19.3 52 7.2 N 15 22 8 12 1010.1 1007.7 0.0
08/02:00pm 30.9 32.0 19.6 51 7.5 NNE 13 22 7 12 1010.5 1008.2 0.0
08/01:30pm 30.1 29.8 19.2 52 7.2 N 19 30 10 16 1011.0 1008.7 0.0
08/01:00pm 30.4 29.6 18.5 49 7.8 NNW 20 28 11 15 1011.8 1009.4 0.0
08/12:30pm 30.2 30.7 19.3 52 7.2 NW 15 30 8 16 1012.3 1009.9 0.0
08/12:00pm 29.2 29.5 18.0 51 7.3 N 13 22 7 12 1013.0 1010.7 0.0
08/11:30am 29.0 28.1 17.8 50 7.2 NNW 19 28 10 15 1013.6 1011.3 0.0
08/11:00am 28.9 29.3 19.8 58 6.0 N 17 22 9 12 1014.0 1011.6 0.0
08/10:30am 27.5 28.4 19.3 61 5.4 N 13 19 7 10 1014.2 1011.8 0.0
08/10:00am 25.7 27.4 19.3 67 4.2 NNE 9 15 5 8 1014.3 1011.9 0.0
08/09:43am 25.0 26.2 19.1 70 3.8 NNE 11 17 6 9 1014.4 1012.0 0.0
08/09:30am 25.4 27.7 20.6 75 3.2 NE 9 15 5 8 1014.4 1012.0 0.0
08/09:26am 25.0 27.0 20.0 74 3.3 NE 9 15 5 8 1014.4 1012.0 0.0
08/09:22am 24.6 26.6 19.9 75 3.1 NE 9 13 5 7 1014.4 1012.0 0.0
08/09:00am 24.0 26.2 19.5 76 2.9 NE 7 11 4 6 1014.4 1012.0 2.4
08/08:30am 23.8 25.3 19.7 78 2.7 NNE 11 17 6 9 1014.5 1012.1 2.2
08/08:16am 23.6 25.4 19.5 78 2.7 ENE 9 13 5 7 1014.6 1012.2 2.2
08/08:00am 23.7 25.9 20.4 82 2.2 E 9 15 5 8 1014.5 1012.1 2.2
08/07:51am 22.9 24.6 20.2 85 1.8 E 11 15 6 8 1014.4 1012.0 2.2
08/07:31am 22.8 25.4 20.0 84 1.8 ESE 6 9 3 5 1014.4 1012.0 2.2
08/07:30am 22.8 25.4 20.0 84 1.8 ESE 6 9 3 5 1014.5 1012.1 2.2
08/07:00am 22.0 24.1 20.1 89 1.2 ENE 9 15 5 8 1014.0 1011.6 2.2
08/06:30am 21.3 23.7 20.1 93 0.8 NE 7 11 4 6 1014.2 1011.8 2.2
08/06:15am 20.9 23.3 19.7 93 0.8 NE 6 11 3 6 1014.0 1011.6 2.2
08/06:00am 20.8 22.7 19.8 94 0.6 E 9 15 5 8 1013.5 1011.2 2.2
08/05:30am 20.6 22.9 19.8 95 0.5 E 7 11 4 6 1013.7 1011.4 2.2
08/05:00am 20.6 22.6 19.9 96 0.5 E 9 13 5 7 1013.4 1011.1 2.2
08/04:30am 20.6 22.5 19.8 95 0.5 E 9 15 5 8 1013.3 1011.0 2.2
08/04:00am 20.7 23.6 19.9 95 0.5 E 4 7 2 4 1013.7 1011.4 2.2
08/03:30am 20.7 24.3 19.7 94 0.6 CALM 0 0 0 0 1013.8 1011.5 2.2
08/03:00am 20.7 23.5 19.7 94 0.6 NNW 4 11 2 6 1014.2 1011.8 2.2
08/02:30am 21.1 23.5 19.7 92 0.9 SSE 6 11 3 6 1013.7 1011.4 2.2
08/02:00am 21.4 23.8 20.0 92 0.9 ESE 7 9 4 5 1013.5 1011.2 2.2
08/01:30am 21.0 23.2 19.7 92 0.8 SE 7 11 4 6 1013.8 1011.5 2.2
08/01:00am 20.8 23.1 19.5 92 0.8 SSE 6 7 3 4 1014.6 1012.2 2.2
08/12:30am 20.8 24.3 19.5 92 0.8 CALM 0 6 0 3 1015.1 1012.8 2.2
08/12:00am 20.9 23.3 19.6 92 0.8 ENE 6 11 3 6 1015.6 1013.3 2.2
 
Date/Time
EST
Temp
°C
App
Temp
°C
Dew
Point
°C
Rel
Hum
%
Delta-T
°C
Wind Press
QNH
hPa
Press
MSL
hPa
Rain since
9am
mm
Dir  Spd
km/h
Gust
km/h
Spd
kts
Gust
kts
07/11:30pm 21.1 21.5 19.9 93 0.8 E 17 22 9 12 1015.1 1012.8 2.2
07/11:00pm 21.6 24.4 20.4 93 0.8 E 6 11 3 6 1015.5 1013.2 2.2
07/10:30pm 21.7 25.1 20.2 91 1.0 ENE 2 7 1 4 1015.5 1013.2 1.8
07/10:00pm 22.1 24.5 20.0 88 1.4 S 7 17 4 9 1016.0 1013.7 1.2
07/09:30pm 22.5 24.9 19.7 84 1.8 NNW 6 9 3 5 1015.4 1013.1 0.6
07/09:00pm 22.7 24.8 20.2 86 1.6 WSW 9 13 5 7 1015.2 1012.9 0.6
07/08:30pm 22.4 25.6 19.8 85 1.7 SW 2 7 1 4 1015.0 1012.7 0.6
07/08:00pm 22.2 24.2 19.2 83 1.9 E 7 11 4 6 1014.9 1012.6 0.6
07/07:30pm 22.7 24.2 18.9 79 2.4 E 9 15 5 8 1015.1 1012.8 0.6
07/07:00pm 23.6 25.3 18.5 73 3.3 NE 7 11 4 6 1015.1 1012.8 0.6
07/06:30pm 23.1 24.7 19.9 82 2.1 NNW 11 15 6 8 1014.9 1012.6 0.6
07/06:00pm 23.0 25.1 20.1 84 1.9 E 9 13 5 7 1014.1 1011.7 0.6
07/05:30pm 23.0 24.4 19.6 81 2.2 ENE 11 19 6 10 1013.4 1011.1 0.6
07/05:00pm 23.0 22.2 18.1 74 3.1 E 19 30 10 16 1013.2 1010.9 0.4
07/04:40pm 24.7 24.2 18.6 69 3.9 SE 19 46 10 25 1012.8 1010.5 0.4
07/04:30pm 24.5 24.4 18.7 70 3.7 SW 17 32 9 17 1012.7 1010.4 0.4
07/04:26pm 24.5 23.1 18.9 71 3.6 SW 24 41 13 22 1012.1 1009.7 0.2
07/04:00pm 28.6 26.1 16.2 47 7.8 W 24 63 13 34 1011.7 1009.3 0.0
07/03:30pm 33.9 32.9 16.7 35 11.1 N 17 24 9 13 1010.8 1008.5 0.0
07/03:00pm 35.0 33.9 17.2 34 11.6 NW 19 32 10 17 1011.8 1009.4 0.0
07/02:30pm 34.5 34.3 16.8 34 11.5 NNW 13 22 7 12 1012.3 1009.9 0.0
07/02:00pm 35.1 33.8 16.9 34 11.8 NNW 19 37 10 20 1012.4 1010.0 0.0
07/01:30pm 33.5 34.0 18.4 40 10.0 N 13 24 7 13 1012.6 1010.3 0.0
07/01:00pm 33.1 32.8 17.3 39 10.3 NNW 15 26 8 14 1013.0 1010.7 0.0
07/12:30pm 32.8 32.5 18.2 42 9.6 NNW 17 26 9 14 1013.3 1011.0 0.0
07/12:00pm 32.7 33.6 19.2 44 9.0 N 13 20 7 11 1013.8 1011.5 0.0
07/11:30am 31.8 32.4 18.7 45 8.6 NNW 13 19 7 10 1014.2 1011.8 0.0
07/11:00am 30.5 32.1 19.2 51 7.5 NNW 9 15 5 8 1014.8 1012.5 0.0
07/10:30am 28.5 30.7 19.2 57 6.1 N 6 11 3 6 1015.2 1012.9 0.0
07/10:00am 27.8 30.4 19.3 60 5.6 NE 4 7 2 4 1015.2 1012.9 0.0
07/09:30am 27.3 29.2 18.6 59 5.7 NNE 6 11 3 6 1015.6 1013.3 0.0
07/09:00am 26.6 28.5 19.0 63 5.0 NE 7 11 4 6 1016.0 1013.7 1.4
07/08:30am 24.9 26.1 19.1 70 3.8 NNW 11 15 6 8 1016.2 1013.9 1.4
07/08:00am 23.6 25.2 19.1 76 2.9 N 9 13 5 7 1016.1 1013.8 1.4
07/07:30am 22.5 24.7 19.5 83 1.9 N 7 9 4 5 1016.6 1014.2 1.4
07/07:00am 21.3 24.2 19.0 87 1.5 SSW 2 6 1 3 1016.5 1014.1 1.2
07/06:30am 20.8 22.6 18.7 88 1.3 NW 7 11 4 6 1016.4 1014.0 1.2
07/06:00am 21.2 23.0 18.2 83 1.9 WSW 6 7 3 4 1016.8 1014.5 0.0
07/05:30am 21.0 23.4 18.0 83 1.9 WNW 2 7 1 4 1016.0 1013.7 0.0
07/05:00am 21.0 23.2 18.4 85 1.7 WNW 4 9 2 5 1015.3 1013.0 0.0
07/04:30am 20.8 22.4 18.2 85 1.6 NW 7 9 4 5 1015.0 1012.7 0.0
07/04:00am 21.2 22.6 17.8 81 2.1 N 7 11 4 6 1014.5 1012.1 0.0
07/03:30am 21.3 21.9 17.7 80 2.3 N 11 15 6 8 1014.3 1011.9 0.0
07/03:00am 20.8 21.1 17.8 83 1.9 NNW 13 17 7 9 1014.5 1012.1 0.0
07/02:30am 21.7 22.6 17.5 77 2.6 NW 9 11 5 6 1014.9 1012.6 0.0
07/02:00am 21.6 22.0 17.2 76 2.7 NW 11 13 6 7 1014.6 1012.2 0.0
07/01:30am 21.8 22.6 17.2 75 2.9 NW 9 13 5 7 1014.1 1011.7 0.0
07/01:00am 22.2 22.8 16.9 72 3.3 N 9 13 5 7 1013.8 1011.5 0.0
07/12:30am 22.3 22.1 16.8 71 3.4 N 13 19 7 10 1014.5 1012.1 0.0
07/12:00am 23.0 23.3 17.0 69 3.8 N 11 17 6 9 1014.6 1012.2 0.0
 
Date/Time
EST
Temp
°C
App
Temp
°C
Dew
Point
°C
Rel
Hum
%
Delta-T
°C
Wind Press
QNH
hPa
Press
MSL
hPa
Rain since
9am
mm
Dir  Spd
km/h
Gust
km/h
Spd
kts
Gust
kts
06/11:30pm 23.6 23.4 16.6 65 4.4 N 13 17 7 9 1014.5 1012.1 0.0
06/11:00pm 24.2 23.0 16.2 61 5.0 N 17 26 9 14 1013.8 1011.5 0.0
06/10:30pm 24.9 24.1 16.1 58 5.5 NNE 15 24 8 13 1013.7 1011.4 0.0
06/10:00pm 25.5 24.6 15.8 55 6.0 N 15 24 8 13 1014.1 1011.7 0.0
06/09:30pm 26.1 25.2 15.8 53 6.4 NNE 15 22 8 12 1013.5 1011.2 0.0

Latest Capital City Observations: Canberra | Sydney | Melbourne | Brisbane | Adelaide | Perth | Hobart | Darwin

Other Formats:

Comma delimited format used in spreadsheet applications
http://www.bom.gov.au/fwo/IDQ60901/IDQ60901.94549.axf

JavaScript Object Notation format (JSON) in row-major order
http://www.bom.gov.au/fwo/IDQ60901/IDQ60901.94549.json